createdAt,value
2022-11-17T00:01:54.259Z,7.40
2022-11-17T00:04:28.959Z,6.77
2022-11-17T00:07:00.795Z,6.63
2022-11-17T00:09:32.717Z,7.50
2022-11-17T00:12:23.572Z,6.67
2022-11-17T00:14:55.976Z,6.93
2022-11-17T00:17:27.924Z,7.23
2022-11-17T00:20:18.451Z,7.60
2022-11-17T00:22:50.688Z,5.87
2022-11-17T00:25:22.736Z,5.80
2022-11-17T00:27:54.903Z,7.80
2022-11-17T00:30:45.386Z,6.43
2022-11-17T00:33:36.592Z,6.90
2022-11-17T00:36:08.818Z,6.40
2022-11-17T00:38:40.707Z,7.33
2022-11-17T00:41:12.565Z,8.53
2022-11-17T00:43:44.473Z,7.03
2022-11-17T00:46:16.317Z,11.30
2022-11-17T00:48:48.283Z,7.63
2022-11-17T00:51:20.720Z,7.60
2022-11-17T00:53:52.944Z,7.03
2022-11-17T00:56:27.874Z,7.80
2022-11-17T00:59:00.304Z,9.47
2022-11-17T01:01:32.464Z,10.40
2022-11-17T01:04:04.952Z,9.43
2022-11-17T01:06:39.456Z,7.10
2022-11-17T01:09:19.754Z,9.67
2022-11-17T01:11:52.931Z,8.50
2022-11-17T01:14:27.489Z,10.30
2022-11-17T01:16:59.513Z,9.47
2022-11-17T01:19:31.422Z,9.90
2022-11-17T01:22:03.885Z,8.80
2022-11-17T01:24:35.822Z,6.10
2022-11-17T01:27:08.176Z,8.90
2022-11-17T01:29:40.053Z,11.40
2022-11-17T01:32:11.847Z,8.83
2022-11-17T01:34:43.718Z,7.90
2022-11-17T01:37:21.863Z,11.00
2022-11-17T01:39:53.709Z,10.47
2022-11-17T01:42:26.994Z,9.60
2022-11-17T01:45:02.693Z,9.50
2022-11-17T01:47:36.042Z,9.63
2022-11-17T01:50:22.535Z,7.37
2022-11-17T01:52:56.914Z,9.50
2022-11-17T01:55:38.034Z,12.60
2022-11-17T01:58:14.530Z,11.07
2022-11-17T02:00:46.439Z,8.50
2022-11-17T02:03:18.353Z,12.07
2022-11-17T02:06:08.260Z,8.33
2022-11-17T02:08:41.688Z,8.93
2022-11-17T02:11:17.039Z,9.57
2022-11-17T02:13:49.206Z,9.50
2022-11-17T02:16:21.024Z,9.93
2022-11-17T02:18:52.948Z,8.57
2022-11-17T02:21:39.954Z,14.40
2022-11-17T02:24:45.624Z,9.57
2022-11-17T02:27:30.912Z,12.93
2022-11-17T02:30:06.164Z,11.03
2022-11-17T02:33:13.006Z,11.10
2022-11-17T02:36:19.331Z,9.13
2022-11-17T02:39:03.421Z,20.50
2022-11-17T02:41:45.102Z,9.80
2022-11-17T02:44:37.707Z,11.63
2022-11-17T02:47:14.938Z,17.30
2022-11-17T02:49:50.638Z,8.67
2022-11-17T02:52:23.149Z,11.37
2022-11-17T02:55:02.949Z,9.60
2022-11-17T02:57:37.110Z,8.30
2022-11-17T03:00:11.151Z,8.83
2022-11-17T03:03:01.958Z,9.30
2022-11-17T03:05:36.758Z,11.10
2022-11-17T03:08:17.774Z,10.17
2022-11-17T03:10:57.364Z,10.83
2022-11-17T03:13:35.254Z,8.20
2022-11-17T03:16:16.445Z,11.27
2022-11-17T03:19:18.420Z,10.80
2022-11-17T03:21:56.190Z,11.20
2022-11-17T03:24:28.982Z,10.70
2022-11-17T03:27:04.855Z,10.63
2022-11-17T03:29:38.723Z,9.43
2022-11-17T03:32:11.296Z,9.67
2022-11-17T03:34:46.332Z,9.20
2022-11-17T03:37:19.329Z,11.60
2022-11-17T03:39:53.341Z,12.20
2022-11-17T03:42:30.685Z,11.90
2022-11-17T03:45:09.178Z,12.50
2022-11-17T03:47:42.236Z,10.17
2022-11-17T03:50:18.737Z,8.00
2022-11-17T03:52:51.216Z,9.83
2022-11-17T03:55:26.872Z,9.17
2022-11-17T03:58:06.844Z,9.93
2022-11-17T04:00:40.577Z,9.73
2022-11-17T04:03:12.729Z,12.57
2022-11-17T04:05:45.704Z,7.60
2022-11-17T04:08:19.645Z,10.40
2022-11-17T04:11:10.379Z,9.90
2022-11-17T04:14:01.008Z,11.07
2022-11-17T04:16:32.969Z,13.13
2022-11-17T04:19:04.808Z,8.80
2022-11-17T04:21:36.846Z,9.17
2022-11-17T04:24:08.938Z,9.50
2022-11-17T04:26:59.440Z,12.13
2022-11-17T04:29:31.339Z,9.30
2022-11-17T04:32:03.603Z,10.10
2022-11-17T04:34:35.708Z,8.20
2022-11-17T04:37:17.237Z,10.83
2022-11-17T04:39:49.173Z,8.50
2022-11-17T04:42:21.031Z,14.53
2022-11-17T04:44:52.923Z,12.97
2022-11-17T04:47:24.848Z,10.23
2022-11-17T04:49:56.640Z,9.27
2022-11-17T04:52:30.024Z,9.17
2022-11-17T04:55:02.057Z,10.93
2022-11-17T04:57:33.917Z,10.83
2022-11-17T05:00:06.556Z,7.87
2022-11-17T05:02:38.493Z,11.20
2022-11-17T05:05:10.323Z,9.40
2022-11-17T05:07:42.139Z,8.60
2022-11-17T05:10:14.987Z,10.30
2022-11-17T05:13:05.203Z,11.60
2022-11-17T05:15:55.669Z,11.93
2022-11-17T05:18:27.496Z,11.37
2022-11-17T05:21:04.016Z,12.47
2022-11-17T05:23:55.024Z,11.73
2022-11-17T05:26:29.649Z,9.20
2022-11-17T05:29:03.393Z,12.00
2022-11-17T05:31:35.616Z,11.40
2022-11-17T05:34:09.393Z,9.10
2022-11-17T05:36:41.880Z,12.17
2022-11-17T05:39:14.094Z,10.43
2022-11-17T05:41:46.021Z,7.13
2022-11-17T05:44:17.869Z,11.20
2022-11-17T05:46:49.891Z,11.63
2022-11-17T05:49:21.722Z,15.10
2022-11-17T05:51:53.840Z,12.00
2022-11-17T05:54:26.996Z,11.80
2022-11-17T05:57:05.982Z,11.30
2022-11-17T05:59:45.102Z,13.50
2022-11-17T06:02:31.538Z,17.40
2022-11-17T06:05:04.087Z,12.33
2022-11-17T06:07:36.907Z,13.07
2022-11-17T06:10:09.433Z,11.77
2022-11-17T06:12:41.263Z,13.87
2022-11-17T06:15:13.242Z,11.23
2022-11-17T06:17:52.421Z,12.30
2022-11-17T06:20:32.101Z,13.03
2022-11-17T06:23:06.258Z,12.67
2022-11-17T06:25:39.090Z,12.70
2022-11-17T06:28:13.871Z,15.43
2022-11-17T06:30:45.746Z,14.80
2022-11-17T06:33:19.224Z,18.87
2022-11-17T06:35:51.225Z,12.57
2022-11-17T06:38:23.116Z,14.93
2022-11-17T06:40:55.742Z,9.80
2022-11-17T06:43:27.706Z,15.50
2022-11-17T06:46:05.827Z,19.33
2022-11-17T06:48:38.467Z,10.53
2022-11-17T06:51:10.687Z,16.37
2022-11-17T06:53:42.620Z,10.77
2022-11-17T06:56:16.969Z,12.90
2022-11-17T06:58:48.974Z,9.20
2022-11-17T07:01:20.998Z,11.60
2022-11-17T07:03:52.991Z,14.50
2022-11-17T07:06:24.980Z,14.57
2022-11-17T07:08:57.025Z,13.40
2022-11-17T07:11:29.324Z,17.57
2022-11-17T07:14:01.466Z,11.93
2022-11-17T07:16:34.175Z,8.43
2022-11-17T07:19:08.296Z,12.27
2022-11-17T07:21:40.204Z,9.77
2022-11-17T07:24:12.057Z,11.30
2022-11-17T07:26:43.989Z,12.20
2022-11-17T07:29:15.986Z,13.60
2022-11-17T07:31:48.146Z,13.57
2022-11-17T07:34:20.092Z,14.80
2022-11-17T07:36:51.908Z,12.70
2022-11-17T07:39:23.713Z,11.50
2022-11-17T07:41:56.835Z,14.87
2022-11-17T07:44:30.489Z,8.60
2022-11-17T07:47:02.652Z,13.33
2022-11-17T07:49:35.102Z,13.07
2022-11-17T07:52:07.050Z,14.47
2022-11-17T07:54:39.040Z,15.97
2022-11-17T07:57:11.023Z,17.57
2022-11-17T07:59:43.202Z,13.37
2022-11-17T08:02:15.177Z,11.50
2022-11-17T08:04:47.124Z,11.07
2022-11-17T08:07:19.090Z,12.20
2022-11-17T08:09:51.172Z,14.27
2022-11-17T08:12:28.193Z,13.13
2022-11-17T08:15:03.825Z,17.40
2022-11-17T08:17:35.714Z,15.07
2022-11-17T08:20:08.386Z,13.00
2022-11-17T08:22:40.742Z,13.70
2022-11-17T08:25:13.873Z,11.30
2022-11-17T08:27:46.006Z,14.70
2022-11-17T08:30:19.414Z,14.80
2022-11-17T08:32:55.316Z,14.73
2022-11-17T08:35:30.730Z,13.80
2022-11-17T08:38:16.820Z,14.43
2022-11-17T08:40:49.102Z,14.80
2022-11-17T08:43:21.356Z,15.73
2022-11-17T08:45:53.249Z,10.93
2022-11-17T08:48:25.571Z,13.60
2022-11-17T08:50:58.025Z,15.90
2022-11-17T08:53:29.922Z,17.00
2022-11-17T08:56:02.042Z,14.57
2022-11-17T08:58:44.769Z,11.87
2022-11-17T09:01:21.115Z,11.90
2022-11-17T09:03:53.241Z,10.43
2022-11-17T09:06:25.157Z,13.10
2022-11-17T09:08:57.831Z,9.70
2022-11-17T09:11:29.956Z,13.67
2022-11-17T09:14:02.537Z,12.77
2022-11-17T09:16:35.107Z,13.50
2022-11-17T09:19:07.248Z,12.97
2022-11-17T09:21:39.181Z,16.03
2022-11-17T09:24:11.853Z,14.93
2022-11-17T09:26:44.688Z,14.90
2022-11-17T09:29:17.214Z,14.40
2022-11-17T09:31:49.893Z,14.63
2022-11-17T09:34:22.037Z,14.70
2022-11-17T09:36:54.079Z,14.83
2022-11-17T09:39:26.034Z,9.70
2022-11-17T09:41:58.108Z,15.53
2022-11-17T09:44:40.399Z,14.80
2022-11-17T09:47:24.669Z,18.10
2022-11-17T09:50:11.547Z,16.80
2022-11-17T09:53:05.444Z,16.67
2022-11-17T09:55:40.056Z,13.43
2022-11-17T09:58:35.146Z,26.90
2022-11-17T10:01:12.416Z,15.30
2022-11-17T10:03:47.831Z,14.40
2022-11-17T10:06:22.097Z,17.70
2022-11-17T10:09:11.338Z,16.73
2022-11-17T10:11:44.229Z,15.27
2022-11-17T10:14:19.140Z,18.60
2022-11-17T10:16:53.987Z,17.53
2022-11-17T10:19:31.254Z,15.47
2022-11-17T10:22:03.235Z,17.07
2022-11-17T10:24:44.239Z,13.53
2022-11-17T10:27:33.462Z,17.30
2022-11-17T10:30:22.613Z,15.67
2022-11-17T10:32:56.909Z,16.90
2022-11-17T10:35:34.098Z,14.60
2022-11-17T10:38:20.892Z,17.27
2022-11-17T10:40:53.545Z,17.60
2022-11-17T10:43:35.595Z,18.30
2022-11-17T10:46:14.337Z,16.03
2022-11-17T10:49:00.916Z,22.13
2022-11-17T10:51:34.088Z,18.20
2022-11-17T10:54:08.977Z,16.70
2022-11-17T10:56:46.770Z,14.17
2022-11-17T10:59:32.432Z,18.30
2022-11-17T11:02:39.730Z,14.80
2022-11-17T11:05:14.158Z,18.13
2022-11-17T11:07:46.044Z,14.73
2022-11-17T11:10:20.159Z,14.80
2022-11-17T11:12:59.258Z,14.40
2022-11-17T11:15:34.563Z,16.70
2022-11-17T11:18:17.450Z,17.67
2022-11-17T11:21:13.529Z,16.70
2022-11-17T11:24:06.989Z,19.37
2022-11-17T11:27:00.613Z,22.40
2022-11-17T11:29:47.406Z,16.10
2022-11-17T11:32:49.241Z,24.47
2022-11-17T11:35:55.714Z,18.13
2022-11-17T11:38:42.549Z,16.90
2022-11-17T11:41:41.954Z,22.43
2022-11-17T11:44:23.857Z,17.60
2022-11-17T11:47:11.458Z,18.70
2022-11-17T11:49:50.334Z,19.87
2022-11-17T11:52:26.666Z,17.57
2022-11-17T11:55:20.868Z,23.93
2022-11-17T11:58:01.274Z,20.27
2022-11-17T12:00:33.794Z,15.60
2022-11-17T12:03:16.100Z,17.57
2022-11-17T12:06:32.934Z,15.60
2022-11-17T12:09:20.063Z,15.90
2022-11-17T12:12:02.672Z,14.70
2022-11-17T12:14:37.136Z,21.07
2022-11-17T12:17:14.732Z,17.60
2022-11-17T12:19:55.020Z,17.77
2022-11-17T12:22:29.634Z,19.10
2022-11-17T12:25:12.781Z,19.53
2022-11-17T12:27:49.896Z,18.50
2022-11-17T12:30:30.590Z,18.73
2022-11-17T12:33:08.426Z,18.63
2022-11-17T12:35:40.267Z,21.20
2022-11-17T12:38:15.377Z,18.30
2022-11-17T12:40:48.117Z,19.63
2022-11-17T12:43:23.983Z,22.53
2022-11-17T12:45:55.831Z,19.30
2022-11-17T12:48:35.837Z,18.63
2022-11-17T12:51:27.781Z,20.87
2022-11-17T12:54:03.409Z,19.17
2022-11-17T12:56:40.690Z,16.93
2022-11-17T12:59:21.281Z,21.40
2022-11-17T13:02:00.304Z,19.87
2022-11-17T13:04:43.751Z,23.57
2022-11-17T13:07:22.159Z,22.87
2022-11-17T13:09:59.152Z,19.53
2022-11-17T13:12:33.068Z,18.30
2022-11-17T13:15:05.777Z,14.70
2022-11-17T13:17:44.053Z,23.63
2022-11-17T13:20:26.960Z,20.30
2022-11-17T13:23:03.015Z,20.87
2022-11-17T13:29:26.618Z,16.87
2022-11-17T13:32:13.682Z,21.90
2022-11-17T13:34:50.646Z,21.33
2022-11-17T13:37:25.276Z,18.33
2022-11-17T13:40:19.808Z,15.60
2022-11-17T13:42:51.801Z,15.13
2022-11-17T13:45:23.877Z,22.40
2022-11-17T13:47:59.447Z,21.67
2022-11-17T13:50:31.474Z,14.97
2022-11-17T13:53:05.648Z,19.30
2022-11-17T13:55:44.126Z,20.53
2022-11-17T13:58:27.280Z,18.80
2022-11-17T14:00:59.665Z,24.10
2022-11-17T14:03:35.821Z,21.63
2022-11-17T14:06:10.040Z,20.37
2022-11-17T14:08:44.031Z,17.77
2022-11-17T14:11:21.241Z,22.40
2022-11-17T14:13:58.779Z,19.37
2022-11-17T14:16:35.101Z,21.80
2022-11-17T14:19:16.337Z,16.80
2022-11-17T14:22:09.628Z,17.33
2022-11-17T14:24:41.412Z,16.80
2022-11-17T14:27:37.016Z,17.13
2022-11-17T14:30:10.574Z,17.50
2022-11-17T14:32:42.443Z,17.13
2022-11-17T14:35:15.377Z,24.47
2022-11-17T14:37:47.604Z,22.73
2022-11-17T14:40:19.699Z,19.90
2022-11-17T14:42:51.546Z,18.90
2022-11-17T14:45:23.435Z,18.63
2022-11-17T14:47:55.511Z,22.97
2022-11-17T14:50:27.454Z,20.67
2022-11-17T14:52:59.805Z,21.93
2022-11-17T14:55:31.652Z,20.87
2022-11-17T14:58:03.612Z,14.57
2022-11-17T15:00:35.474Z,20.63
2022-11-17T15:03:07.700Z,18.90
2022-11-17T15:05:46.202Z,23.47
2022-11-17T15:08:18.148Z,19.33
2022-11-17T15:10:51.265Z,26.10
2022-11-17T15:13:23.120Z,16.63
2022-11-17T15:16:04.233Z,19.00
2022-11-17T15:18:36.394Z,22.30
2022-11-17T15:21:10.354Z,15.70
2022-11-17T15:23:43.389Z,13.23
2022-11-17T15:26:18.740Z,15.07
2022-11-17T15:28:50.656Z,17.57
2022-11-17T15:31:22.525Z,20.77
2022-11-17T15:33:54.474Z,19.90
2022-11-17T15:36:26.552Z,16.97
2022-11-17T15:38:58.677Z,17.80
2022-11-17T15:41:33.058Z,18.07
2022-11-17T15:44:05.243Z,22.47
2022-11-17T15:46:37.120Z,17.93
2022-11-17T15:49:09.001Z,17.53
2022-11-17T15:51:41.077Z,20.10
2022-11-17T15:54:18.421Z,15.43
2022-11-17T15:56:53.014Z,14.03
2022-11-17T15:59:24.902Z,18.33
2022-11-17T16:01:56.795Z,18.13
2022-11-17T16:04:28.893Z,16.10
2022-11-17T16:07:00.841Z,16.07
2022-11-17T16:09:34.453Z,18.77
2022-11-17T16:12:06.523Z,19.00
2022-11-17T16:14:38.953Z,16.17
2022-11-17T16:17:10.825Z,17.70
2022-11-17T16:19:42.804Z,13.47
2022-11-17T16:22:14.874Z,16.90
2022-11-17T16:24:46.831Z,16.80
2022-11-17T16:27:18.841Z,13.33
2022-11-17T16:29:50.783Z,18.30
2022-11-17T16:32:22.816Z,14.20
2022-11-17T16:34:55.088Z,13.03
2022-11-17T16:37:27.390Z,12.20
2022-11-17T16:40:01.335Z,13.47
2022-11-17T16:42:33.331Z,13.73
2022-11-17T16:45:05.791Z,13.30
2022-11-17T16:47:38.121Z,14.97
2022-11-17T16:50:10.271Z,14.80
2022-11-17T16:52:45.045Z,11.83
2022-11-17T16:55:17.253Z,14.10
2022-11-17T16:57:49.434Z,15.30
2022-11-17T17:00:21.557Z,16.40
2022-11-17T17:02:53.982Z,14.23
2022-11-17T17:05:26.182Z,14.73
2022-11-17T17:07:58.154Z,15.73
2022-11-17T17:10:30.160Z,16.00
2022-11-17T17:13:02.086Z,11.67
2022-11-17T17:15:34.034Z,16.13
2022-11-17T17:18:06.474Z,16.60
2022-11-17T17:20:38.337Z,12.13
2022-11-17T17:23:10.652Z,16.37
2022-11-17T17:25:43.046Z,15.30
2022-11-17T17:28:15.119Z,13.27
2022-11-17T17:30:53.858Z,17.50
2022-11-17T17:33:27.054Z,18.17
2022-11-17T17:36:06.820Z,12.53
2022-11-17T17:38:39.199Z,12.00
2022-11-17T17:41:16.682Z,18.13
2022-11-17T17:43:55.116Z,18.77
2022-11-17T17:46:29.872Z,14.00
2022-11-17T17:49:02.399Z,14.60
2022-11-17T17:51:38.061Z,14.87
2022-11-17T17:54:17.282Z,17.57
2022-11-17T17:56:49.571Z,17.10
2022-11-17T17:59:21.464Z,14.33
2022-11-17T18:01:53.496Z,15.47
2022-11-17T18:04:25.627Z,15.70
2022-11-17T18:06:59.371Z,16.80
2022-11-17T18:09:31.416Z,15.37
2022-11-17T18:12:03.594Z,18.17
2022-11-17T18:14:35.640Z,14.47
2022-11-17T18:17:07.567Z,16.93
2022-11-17T18:19:39.990Z,14.83
2022-11-17T18:22:12.134Z,24.53
2022-11-17T18:24:44.072Z,14.37
2022-11-17T18:27:16.259Z,14.20
2022-11-17T18:29:48.510Z,17.90
2022-11-17T18:32:20.909Z,13.43
2022-11-17T18:34:52.978Z,17.27
2022-11-17T18:37:24.872Z,19.73
2022-11-17T18:39:56.925Z,19.33
2022-11-17T18:42:28.989Z,17.20
2022-11-17T18:45:00.853Z,16.17
2022-11-17T18:47:32.927Z,17.70
2022-11-17T18:50:05.163Z,15.00
2022-11-17T18:52:37.350Z,15.97
2022-11-17T18:55:09.488Z,24.00
2022-11-17T18:57:44.888Z,15.10
2022-11-17T19:00:17.814Z,15.80
2022-11-17T19:02:49.781Z,19.00
2022-11-17T19:05:21.852Z,18.47
2022-11-17T19:07:56.315Z,18.53
2022-11-17T19:10:28.214Z,14.93
2022-11-17T19:13:00.289Z,19.90
2022-11-17T19:15:32.459Z,15.23
2022-11-17T19:18:04.519Z,14.77
2022-11-17T19:20:36.661Z,15.37
2022-11-17T19:23:08.661Z,16.80
2022-11-17T19:25:42.248Z,18.80
2022-11-17T19:28:14.988Z,18.13
2022-11-17T19:30:46.976Z,15.47
2022-11-17T19:33:18.992Z,13.27
2022-11-17T19:35:50.918Z,13.63
2022-11-17T19:38:22.939Z,13.90
2022-11-17T19:40:54.940Z,14.77
2022-11-17T19:43:26.910Z,12.73
2022-11-17T19:46:00.311Z,17.30
2022-11-17T19:48:32.588Z,15.80
2022-11-17T19:51:20.389Z,10.07
2022-11-17T19:53:54.687Z,14.57
2022-11-17T19:56:26.916Z,14.67
2022-11-17T19:58:59.204Z,11.40
2022-11-17T20:01:33.071Z,14.03
2022-11-17T20:04:07.295Z,14.83
2022-11-17T20:06:39.539Z,11.90
2022-11-17T20:09:13.675Z,15.07
2022-11-17T20:11:45.823Z,13.80
2022-11-17T20:14:18.091Z,13.00
2022-11-17T20:16:50.159Z,14.57
2022-11-17T20:19:22.068Z,12.27
2022-11-17T20:21:53.898Z,12.90
2022-11-17T20:24:25.911Z,13.90
2022-11-17T20:26:57.745Z,14.87
2022-11-17T20:29:29.673Z,16.00
2022-11-17T20:32:01.996Z,14.70
2022-11-17T20:34:33.980Z,13.63
2022-11-17T20:37:05.890Z,13.77
2022-11-17T20:39:38.033Z,12.67
2022-11-17T20:42:10.392Z,11.80
2022-11-17T20:44:42.663Z,21.00
2022-11-17T20:47:15.043Z,13.83
2022-11-17T20:49:46.947Z,13.70
2022-11-17T20:52:18.948Z,12.47
2022-11-17T20:54:50.835Z,13.33
2022-11-17T20:57:22.825Z,15.37
2022-11-17T20:59:54.759Z,13.17
2022-11-17T21:02:26.662Z,15.27
2022-11-17T21:04:58.817Z,14.23
2022-11-17T21:07:30.750Z,14.47
2022-11-17T21:10:03.062Z,16.17
2022-11-17T21:12:35.084Z,13.83
2022-11-17T21:15:07.484Z,12.00
2022-11-17T21:17:58.132Z,16.90
2022-11-17T21:20:30.142Z,16.20
2022-11-17T21:23:02.374Z,12.70
2022-11-17T21:25:35.712Z,15.70
2022-11-17T21:28:07.569Z,15.07
2022-11-17T21:30:39.438Z,14.30
2022-11-17T21:33:11.385Z,13.70
2022-11-17T21:35:43.531Z,14.67
2022-11-17T21:38:15.578Z,12.60
2022-11-17T21:40:47.398Z,16.40
2022-11-17T21:43:19.459Z,17.40
2022-11-17T21:45:51.383Z,13.60
2022-11-17T21:48:23.289Z,14.00
2022-11-17T21:50:55.507Z,12.90
2022-11-17T21:53:28.152Z,14.47
2022-11-17T21:56:01.569Z,15.43
2022-11-17T21:58:33.936Z,12.73
2022-11-17T22:01:33.990Z,16.00
2022-11-17T22:04:06.900Z,14.13
2022-11-17T22:06:39.154Z,18.73
2022-11-17T22:09:11.497Z,17.80
2022-11-17T22:11:43.425Z,19.20
2022-11-17T22:14:19.656Z,19.87
2022-11-17T22:16:53.164Z,15.80
2022-11-17T22:19:28.288Z,18.80
2022-11-17T22:22:00.095Z,16.30
2022-11-17T22:24:32.015Z,19.77
2022-11-17T22:27:04.031Z,18.57
2022-11-17T22:29:35.990Z,15.20
2022-11-17T22:32:07.838Z,19.37
2022-11-17T22:34:39.678Z,22.03
2022-11-17T22:37:11.844Z,20.30
2022-11-17T22:39:43.686Z,15.30
2022-11-17T22:42:18.682Z,23.80
2022-11-17T22:44:50.624Z,22.20
2022-11-17T22:47:22.445Z,19.50
2022-11-17T22:49:54.263Z,15.83
2022-11-17T22:52:26.197Z,18.30
2022-11-17T22:54:58.094Z,20.57
2022-11-17T22:57:29.969Z,20.57
2022-11-17T23:00:02.132Z,18.37
2022-11-17T23:02:37.053Z,16.20
2022-11-17T23:05:09.193Z,16.23
2022-11-17T23:07:41.110Z,21.03
2022-11-17T23:10:13.298Z,21.07
2022-11-17T23:12:45.168Z,16.97
2022-11-17T23:15:17.147Z,17.00
2022-11-17T23:17:49.245Z,21.80
2022-11-17T23:20:21.143Z,17.53
2022-11-17T23:22:56.389Z,18.80
2022-11-17T23:25:28.525Z,21.77
2022-11-17T23:28:01.439Z,16.80
2022-11-17T23:30:33.655Z,16.30
2022-11-17T23:33:05.554Z,26.33
2022-11-17T23:35:37.455Z,21.90
2022-11-17T23:38:09.246Z,20.00
2022-11-17T23:40:41.101Z,22.83
2022-11-17T23:43:13.025Z,18.27
2022-11-17T23:45:44.868Z,18.80
2022-11-17T23:48:16.701Z,17.50
2022-11-17T23:50:48.549Z,20.97
2022-11-17T23:53:20.448Z,15.47
2022-11-17T23:55:55.839Z,19.43
2022-11-17T23:58:28.395Z,18.77
